Time;durP1;ratioP1;P1;durP2;ratioP2;P2;SDS_P1;SDS_P2;PMS_P1;PMS_P2;Temp;Humidity;BMP_temperature;BMP_pressure;BME280_temperature;BME280_humidity;BME280_pressure;Samples;Min_cycle;Max_cycle;Signal;HPM_P1;HPM_P2
2023/05/16 00:00:07;;;;;;;17.07;15.37;;;17.10;98.80;;;;;;5032333;28;20096;-51
2023/05/16 00:02:35;;;;;;;18.02;16.15;;;17.20;98.60;;;;;;5031630;28;20057;-51
2023/05/16 00:05:03;;;;;;;17.15;15.43;;;17.10;98.70;;;;;;5025350;28;20088;-50
2023/05/16 00:07:29;;;;;;;17.33;15.52;;;17.10;98.70;;;;;;5012885;28;20042;-52
2023/05/16 00:09:55;;;;;;;24.23;17.15;;;17.10;98.50;;;;;;5027261;28;20268;-53
2023/05/16 00:12:21;;;;;;;18.02;16.17;;;17.20;99.00;;;;;;5015335;28;20049;-52
2023/05/16 00:14:47;;;;;;;23.92;18.40;;;17.10;99.20;;;;;;5032789;28;20096;-52
2023/05/16 00:17:16;;;;;;;20.17;17.98;;;17.20;99.30;;;;;;5032430;28;20540;-50
2023/05/16 00:19:43;;;;;;;19.73;17.73;;;17.20;99.30;;;;;;5032783;28;20018;-53
2023/05/16 00:22:10;;;;;;;19.80;15.88;;;17.20;99.20;;;;;;5017641;28;20025;-51
2023/05/16 00:24:36;;;;;;;;;;;17.10;99.20;;;;;;5013382;28;20029;-51
2023/05/16 00:27:02;;;;;;;17.55;15.77;;;17.10;98.40;;;;;;5012676;28;19914;-50
2023/05/16 00:29:32;;;;;;;20.45;16.08;;;17.00;98.90;;;;;;5012766;28;20068;-51
2023/05/16 00:31:57;;;;;;;18.73;15.52;;;16.90;99.20;;;;;;5012638;28;20026;-51
2023/05/16 00:34:23;;;;;;;19.42;16.17;;;16.80;99.40;;;;;;5012737;28;20076;-52
2023/05/16 00:36:49;;;;;;;18.85;16.83;;;16.80;99.60;;;;;;5029707;28;20347;-53
2023/05/16 00:39:16;;;;;;;17.15;15.38;;;16.80;99.70;;;;;;5031573;28;20030;-52
2023/05/16 00:41:41;;;;;;;16.97;14.90;;;16.70;99.70;;;;;;5032048;28;20025;-52
2023/05/16 00:44:07;;;;;;;21.20;15.13;;;16.70;99.60;;;;;;5032218;28;20055;-53
2023/05/16 00:46:33;;;;;;;15.98;14.40;;;16.70;99.60;;;;;;5031687;28;20022;-50
2023/05/16 00:48:59;;;;;;;17.45;15.63;;;16.70;99.70;;;;;;5013690;28;20116;-52
2023/05/16 00:51:25;;;;;;;18.63;15.63;;;16.70;99.70;;;;;;5013855;28;20171;-55
2023/05/16 00:53:50;;;;;;;17.02;15.02;;;16.70;99.80;;;;;;5031500;28;20047;-55
2023/05/16 00:56:17;;;;;;;16.30;14.60;;;16.70;99.80;;;;;;5032510;28;20040;-52
2023/05/16 00:58:43;;;;;;;17.30;15.13;;;16.70;99.90;;;;;;5031461;28;20040;-54
2023/05/16 01:01:08;;;;;;;16.38;14.77;;;16.70;99.80;;;;;;5031619;28;20276;-55
2023/05/16 01:03:34;;;;;;;19.00;14.10;;;16.70;99.90;;;;;;5031229;28;20029;-50
2023/05/16 01:06:00;;;;;;;17.25;13.70;;;16.70;99.90;;;;;;5031312;28;20029;-54
2023/05/16 01:08:26;;;;;;;15.68;13.80;;;16.70;99.80;;;;;;5031299;28;20029;-54
2023/05/16 01:11:04;;;;;;;15.25;13.55;;;16.70;99.90;;;;;;5030991;28;20061;-52
2023/05/16 01:13:56;;;;;;;17.80;13.35;;;16.60;99.60;;;;;;5031410;28;20025;-53
2023/05/16 01:16:39;;;;;;;17.25;14.52;;;16.60;99.60;;;;;;4990316;28;20413;-53
2023/05/16 01:19:26;;;;;;;16.30;13.88;;;16.60;99.90;;;;;;5031258;28;20025;-53
2023/05/16 01:22:18;;;;;;;14.70;12.98;;;16.60;99.90;;;;;;5029686;28;20026;-52
2023/05/16 01:25:19;;;;;;;16.70;13.88;;;16.60;99.10;;;;;;5031327;28;20399;-53
2023/05/16 01:27:45;;;;;;;15.52;11.88;;;16.50;99.90;;;;;;5008745;28;20075;-51
2023/05/16 01:30:16;;;;;;;14.93;12.43;;;16.50;99.60;;;;;;5017026;28;20376;-53
2023/05/16 01:32:42;;;;;;;13.77;12.02;;;16.50;99.80;;;;;;5031564;28;20033;-54
2023/05/16 01:35:10;;;;;;;15.55;11.80;;;16.40;99.70;;;;;;5031550;28;20021;-50
2023/05/16 01:37:43;;;;;;;13.48;11.40;;;16.50;99.80;;;;;;5031323;28;20388;-52
2023/05/16 01:40:22;;;;;;;15.90;12.15;;;16.40;99.60;;;;;;5031498;28;20027;-56
2023/05/16 01:42:51;;;;;;;12.90;11.50;;;16.40;99.70;;;;;;5022526;28;20092;-50
2023/05/16 01:45:30;;;;;;;13.20;10.93;;;16.40;99.40;;;;;;5011813;28;20026;-55
2023/05/16 01:48:16;;;;;;;12.65;10.57;;;16.40;99.60;;;;;;5011480;28;20061;-55
2023/05/16 01:50:51;;;;;;;12.77;10.27;;;16.40;99.10;;;;;;5011977;28;20022;-54
2023/05/16 01:53:27;;;;;;;13.05;10.30;;;16.50;99.40;;;;;;4994004;28;20030;-54
2023/05/16 01:55:56;;;;;;;13.02;11.40;;;16.50;99.60;;;;;;5011635;28;20054;-53
2023/05/16 01:58:26;;;;;;;12.95;11.35;;;16.50;99.60;;;;;;5028454;28;20116;-51
2023/05/16 02:00:53;;;;;;;13.20;10.60;;;16.50;99.70;;;;;;5027653;28;20021;-53
2023/05/16 02:03:18;;;;;;;14.10;11.53;;;16.50;99.60;;;;;;5013404;28;20029;-52
2023/05/16 02:05:44;;;;;;;12.98;10.77;;;16.50;99.50;;;;;;5019354;28;20287;-58
2023/05/16 02:08:10;;;;;;;12.15;10.07;;;16.50;99.60;;;;;;5011371;28;20033;-51
2023/05/16 02:10:36;;;;;;;16.63;10.73;;;16.40;99.60;;;;;;5011597;28;20045;-50
2023/05/16 02:13:01;;;;;;;12.30;10.48;;;16.40;99.70;;;;;;5011524;28;20022;-53
2023/05/16 02:15:27;;;;;;;12.68;11.13;;;16.30;99.70;;;;;;5014551;28;20160;-53
2023/05/16 02:17:53;;;;;;;14.73;10.73;;;16.30;99.70;;;;;;5030439;28;20030;-56
2023/05/16 02:20:19;;;;;;;14.10;9.03;;;16.20;99.60;;;;;;5013362;28;20040;-53
2023/05/16 02:22:46;;;;;;;14.60;10.45;;;16.20;99.60;;;;;;5029743;28;20529;-54
2023/05/16 02:25:13;;;;;;;14.68;9.95;;;16.20;99.70;;;;;;5029682;28;20025;-55
2023/05/16 02:27:40;;;;;;;11.43;9.50;;;16.20;99.60;;;;;;5030675;28;20037;-54
2023/05/16 02:30:06;;;;;;;12.77;10.10;;;16.10;99.80;;;;;;5012643;28;20442;-52
2023/05/16 02:32:35;;;;;;;11.35;10.00;;;16.10;99.90;;;;;;5031436;28;20793;-52
2023/05/16 02:35:01;;;;;;;11.20;9.70;;;16.10;99.70;;;;;;5024101;28;20492;-53
2023/05/16 02:37:27;;;;;;;14.43;10.38;;;16.10;99.80;;;;;;5014826;28;20025;-50
2023/05/16 02:39:52;;;;;;;17.30;11.05;;;16.10;99.90;;;;;;5029520;28;20025;-53
2023/05/16 02:42:18;;;;;;;14.50;10.20;;;16.10;99.90;;;;;;5034124;28;20101;-53
2023/05/16 02:44:44;;;;;;;12.18;9.25;;;16.10;99.80;;;;;;5034267;28;20037;-51
2023/05/16 02:47:09;;;;;;;10.90;9.70;;;16.10;99.80;;;;;;5033814;28;20585;-52
2023/05/16 02:49:35;;;;;;;11.73;10.27;;;16.10;99.80;;;;;;5016233;28;20048;-49
2023/05/16 02:52:01;;;;;;;15.07;9.63;;;16.00;99.80;;;;;;5030311;28;20037;-49
2023/05/16 02:54:26;;;;;;;14.02;9.20;;;16.00;99.80;;;;;;5033906;28;20365;-53
2023/05/16 02:56:52;;;;;;;17.45;10.07;;;15.90;99.70;;;;;;5033684;28;20108;-53
2023/05/16 02:59:18;;;;;;;10.32;9.20;;;15.90;99.70;;;;;;5034085;28;20408;-52
2023/05/16 03:01:43;;;;;;;11.80;9.02;;;15.90;99.90;;;;;;5033336;28;20033;-51
2023/05/16 03:04:09;;;;;;;16.77;9.75;;;15.80;99.90;;;;;;5033290;28;20040;-50
2023/05/16 03:06:34;;;;;;;13.07;9.13;;;15.80;99.90;;;;;;5033500;28;20026;-50
2023/05/16 03:09:00;;;;;;;12.60;9.95;;;15.80;99.90;;;;;;5033597;28;20043;-52
2023/05/16 03:11:27;;;;;;;11.30;9.13;;;15.70;99.90;;;;;;5033780;28;20065;-53
2023/05/16 03:13:53;;;;;;;14.55;9.85;;;15.70;99.90;;;;;;5033727;28;20017;-51
2023/05/16 03:16:19;;;;;;;12.93;9.15;;;15.60;99.90;;;;;;5033105;28;20030;-50
2023/05/16 03:18:45;;;;;;;15.82;9.68;;;15.60;99.90;;;;;;5030746;28;20034;-55
2023/05/16 03:21:10;;;;;;;12.07;8.65;;;15.60;99.90;;;;;;5031664;28;20342;-54
2023/05/16 03:23:36;;;;;;;10.77;8.70;;;15.50;99.90;;;;;;5031851;28;20038;-54
2023/05/16 03:26:02;;;;;;;10.57;9.50;;;15.50;99.90;;;;;;5032790;28;20033;-49
2023/05/16 03:28:27;;;;;;;14.98;9.05;;;15.50;99.90;;;;;;5032477;28;20380;-53
2023/05/16 03:30:53;;;;;;;10.90;8.68;;;15.40;99.90;;;;;;5032472;28;20480;-49
2023/05/16 03:33:19;;;;;;;12.68;9.10;;;15.50;99.90;;;;;;5032697;28;20029;-50
2023/05/16 03:35:45;;;;;;;10.60;8.30;;;15.50;99.90;;;;;;5033402;28;20022;-52
2023/05/16 03:38:11;;;;;;;9.55;7.72;;;15.50;99.90;;;;;;5033108;28;20108;-50
2023/05/16 03:40:37;;;;;;;11.63;8.82;;;15.50;99.90;;;;;;5033198;28;20112;-53
2023/05/16 03:43:02;;;;;;;9.10;7.85;;;15.50;99.90;;;;;;5033155;28;20018;-52
2023/05/16 03:45:29;;;;;;;16.08;8.98;;;15.40;99.90;;;;;;5014295;28;20021;-54
2023/05/16 03:47:55;;;;;;;11.52;8.68;;;15.40;99.90;;;;;;5033025;28;20578;-52
2023/05/16 03:50:21;;;;;;;11.63;8.73;;;15.40;99.90;;;;;;5033013;28;20140;-52
2023/05/16 03:52:47;;;;;;;12.75;9.00;;;15.40;99.90;;;;;;5032857;28;20392;-60
2023/05/16 03:55:14;;;;;;;12.63;9.18;;;15.40;99.90;;;;;;5015152;28;20029;-51
2023/05/16 03:57:41;;;;;;;10.68;9.10;;;15.40;99.90;;;;;;5032605;28;20032;-52
2023/05/16 04:00:07;;;;;;;;;;;15.40;99.90;;;;;;5033237;28;20057;-53
2023/05/16 04:02:33;;;;;;;15.35;9.75;;;15.40;99.90;;;;;;5032458;28;19911;-58
2023/05/16 04:04:59;;;;;;;11.35;8.55;;;15.40;99.90;;;;;;5032787;28;20025;-50
2023/05/16 04:07:24;;;;;;;10.32;8.95;;;15.40;99.90;;;;;;5032617;28;20030;-56
2023/05/16 04:09:51;;;;;;;13.32;9.27;;;15.40;99.90;;;;;;5032670;28;20033;-54
2023/05/16 04:12:16;;;;;;;12.70;10.40;;;15.40;99.90;;;;;;5014837;28;20018;-54
2023/05/16 04:14:42;;;;;;;13.70;8.75;;;15.40;99.90;;;;;;5032941;28;20037;-53
2023/05/16 04:17:09;;;;;;;13.55;8.75;;;15.50;99.90;;;;;;5032209;28;20029;-54
2023/05/16 04:19:35;;;;;;;11.95;10.55;;;15.50;99.90;;;;;;5032533;28;20383;-55
2023/05/16 04:22:00;;;;;;;11.35;8.98;;;15.50;99.90;;;;;;5032460;28;20021;-52
2023/05/16 04:24:27;;;;;;;12.35;8.80;;;15.50;99.90;;;;;;5032426;28;20511;-55
2023/05/16 04:26:54;;;;;;;11.90;8.95;;;15.50;99.90;;;;;;5032247;28;20014;-55
2023/05/16 04:29:20;;;;;;;12.55;9.93;;;15.60;99.90;;;;;;5032051;28;20036;-55
2023/05/16 04:31:46;;;;;;;12.23;9.00;;;15.60;99.90;;;;;;5032167;28;20251;-55
2023/05/16 04:34:12;;;;;;;12.63;9.43;;;15.60;99.90;;;;;;5032174;28;20104;-58
2023/05/16 04:36:37;;;;;;;14.13;9.50;;;15.70;99.90;;;;;;5032518;28;20037;-54
2023/05/16 04:39:03;;;;;;;15.13;9.35;;;15.70;99.90;;;;;;5032008;28;20491;-52
2023/05/16 04:41:29;;;;;;;11.27;9.23;;;15.70;99.90;;;;;;5032053;28;20038;-54
2023/05/16 04:43:55;;;;;;;14.50;9.38;;;15.70;99.90;;;;;;5031986;28;20072;-54
2023/05/16 04:46:21;;;;;;;12.35;10.50;;;15.80;99.90;;;;;;5031985;28;20025;-56
2023/05/16 04:48:46;;;;;;;12.25;9.40;;;15.80;99.90;;;;;;5031785;28;20100;-53
2023/05/16 04:51:12;;;;;;;11.90;9.15;;;15.80;99.90;;;;;;5031690;28;20029;-54
2023/05/16 04:53:38;;;;;;;10.15;7.47;;;15.90;99.90;;;;;;5031883;28;20028;-52
2023/05/16 04:56:04;;;;;;;8.13;7.22;;;15.90;99.90;;;;;;5031489;28;20029;-51
2023/05/16 04:58:30;;;;;;;12.73;7.20;;;16.00;99.90;;;;;;5013828;28;20018;-57
2023/05/16 05:00:56;;;;;;;6.80;5.93;;;16.10;99.90;;;;;;5031660;28;20025;-54
2023/05/16 05:03:22;;;;;;;7.53;5.22;;;16.10;99.80;;;;;;5031725;28;20079;-54
2023/05/16 05:05:48;;;;;;;9.33;6.63;;;16.10;99.20;;;;;;5031635;28;20036;-55
2023/05/16 05:08:14;;;;;;;7.53;6.30;;;16.20;99.20;;;;;;5031952;28;20399;-53
2023/05/16 05:10:40;;;;;;;8.98;5.60;;;16.20;98.80;;;;;;5013754;28;20075;-54
2023/05/16 05:13:06;;;;;;;5.85;4.68;;;16.30;98.60;;;;;;5013878;28;20155;-54
2023/05/16 05:15:32;;;;;;;9.40;4.55;;;16.30;98.40;;;;;;5031577;28;20044;-52
2023/05/16 05:17:57;;;;;;;5.72;4.35;;;16.40;98.20;;;;;;5031710;28;20040;-52
2023/05/16 05:20:23;;;;;;;9.45;5.13;;;16.40;97.70;;;;;;5031574;28;20030;-54
2023/05/16 05:22:49;;;;;;;5.50;4.75;;;16.50;97.50;;;;;;5031859;28;20537;-53
2023/05/16 05:25:14;;;;;;;5.70;4.63;;;16.50;97.30;;;;;;5031387;28;20400;-54
2023/05/16 05:27:40;;;;;;;7.18;5.15;;;16.50;97.20;;;;;;5031111;28;20396;-53
2023/05/16 05:30:06;;;;;;;11.25;5.72;;;16.60;96.70;;;;;;5031373;28;20391;-54
2023/05/16 05:32:32;;;;;;;6.33;5.10;;;16.70;96.80;;;;;;5031325;28;20087;-51
2023/05/16 05:34:58;;;;;;;10.27;6.22;;;16.70;96.70;;;;;;5031418;28;20515;-55
2023/05/16 05:37:25;;;;;;;9.30;6.05;;;16.70;96.60;;;;;;5030475;28;20029;-52
2023/05/16 05:39:51;;;;;;;10.07;7.40;;;16.70;96.40;;;;;;5030779;28;20028;-53
2023/05/16 05:42:17;;;;;;;8.32;7.03;;;16.70;96.40;;;;;;5031467;28;20025;-55
2023/05/16 05:44:42;;;;;;;11.27;7.30;;;16.70;96.40;;;;;;5031323;28;20021;-52
2023/05/16 05:47:08;;;;;;;9.55;6.88;;;16.70;96.50;;;;;;5031070;28;20060;-50
2023/05/16 05:49:34;;;;;;;12.55;6.97;;;16.70;96.50;;;;;;5031232;28;20400;-52
2023/05/16 05:52:00;;;;;;;11.95;7.18;;;16.70;96.80;;;;;;5031249;28;20053;-53
2023/05/16 05:54:26;;;;;;;12.82;7.93;;;16.70;97.10;;;;;;5031269;28;20053;-53
2023/05/16 05:56:52;;;;;;;8.48;7.25;;;16.80;97.30;;;;;;5031090;28;20037;-54
2023/05/16 05:59:17;;;;;;;16.88;8.02;;;16.70;97.60;;;;;;5013196;28;20064;-51
2023/05/16 06:01:43;;;;;;;12.02;8.10;;;16.70;98.00;;;;;;5031109;28;20068;-54
2023/05/16 06:04:10;;;;;;;11.02;9.65;;;16.70;98.50;;;;;;5031194;28;20087;-56
2023/05/16 06:06:36;;;;;;;12.32;10.43;;;16.60;99.20;;;;;;5031135;28;20500;-54
2023/05/16 06:09:02;;;;;;;12.55;10.43;;;16.60;99.70;;;;;;5033906;28;20022;-51
2023/05/16 06:11:28;;;;;;;11.65;9.43;;;16.60;99.90;;;;;;5034897;28;20033;-54
2023/05/16 06:13:53;;;;;;;14.23;9.32;;;16.50;99.90;;;;;;5034905;28;20072;-54
2023/05/16 06:16:24;;;;;;;13.68;9.25;;;16.50;99.90;;;;;;5034783;28;20079;-54
2023/05/16 06:18:50;;;;;;;13.13;9.23;;;16.50;99.90;;;;;;5034887;28;20040;-57
2023/05/16 06:21:15;;;;;;;11.93;9.98;;;16.40;99.90;;;;;;5034821;28;20519;-52
2023/05/16 06:23:41;;;;;;;12.73;9.85;;;16.40;99.90;;;;;;5032089;28;20506;-57
2023/05/16 06:26:07;;;;;;;10.02;8.02;;;16.50;99.90;;;;;;5016655;28;20112;-51
2023/05/16 06:28:33;;;;;;;13.10;8.38;;;16.40;99.90;;;;;;5036606;28;20040;-47
2023/05/16 06:30:59;;;;;;;14.50;7.93;;;16.40;99.90;;;;;;5034347;28;20033;-47
2023/05/16 06:33:25;;;;;;;9.73;8.15;;;16.40;99.90;;;;;;5034046;28;20017;-49
2023/05/16 06:35:51;;;;;;;13.35;7.93;;;16.50;99.90;;;;;;5034339;28;20489;-46
2023/05/16 06:38:18;;;;;;;10.70;7.40;;;16.50;99.90;;;;;;5033839;28;20037;-47
2023/05/16 06:40:44;;;;;;;9.60;6.80;;;16.50;99.90;;;;;;5034329;28;20505;-50
2023/05/16 06:43:10;;;;;;;10.05;6.95;;;16.50;99.90;;;;;;5016192;28;20025;-47
2023/05/16 06:45:36;;;;;;;8.13;5.22;;;16.50;99.90;;;;;;5034112;28;20032;-50
2023/05/16 06:48:03;;;;;;;10.07;5.90;;;16.40;99.90;;;;;;5033705;28;20022;-49
2023/05/16 06:50:29;;;;;;;10.50;5.63;;;16.30;99.90;;;;;;5033185;28;20392;-47
2023/05/16 06:52:54;;;;;;;9.63;4.85;;;16.40;99.90;;;;;;5034133;28;20022;-49
2023/05/16 06:55:20;;;;;;;6.18;4.65;;;16.30;99.90;;;;;;5033638;28;20040;-47
2023/05/16 06:57:46;;;;;;;7.40;4.57;;;16.30;99.90;;;;;;5033883;28;20028;-47
2023/05/16 07:00:13;;;;;;;7.10;4.50;;;16.20;99.90;;;;;;5033402;28;20113;-50
2023/05/16 07:02:38;;;;;;;6.45;2.95;;;16.30;99.90;;;;;;5016368;28;20026;-48
2023/05/16 07:05:05;;;;;;;4.80;2.35;;;16.30;99.90;;;;;;5033486;28;20034;-48
2023/05/16 07:07:31;;;;;;;4.75;2.55;;;16.40;99.90;;;;;;5033639;28;20096;-47
2023/05/16 07:09:57;;;;;;;6.75;2.80;;;16.40;99.90;;;;;;5033401;28;20561;-47
2023/05/16 07:12:22;;;;;;;6.03;2.20;;;16.40;99.90;;;;;;5033756;28;20032;-50
2023/05/16 07:14:48;;;;;;;3.15;1.48;;;16.40;99.90;;;;;;5033342;28;20030;-48
2023/05/16 07:17:14;;;;;;;3.60;1.50;;;16.40;99.90;;;;;;5033444;28;20511;-48
2023/05/16 07:19:39;;;;;;;5.30;1.63;;;16.30;99.90;;;;;;5033256;28;20476;-47
2023/05/16 07:22:05;;;;;;;2.65;1.77;;;16.30;99.90;;;;;;5033538;28;20492;-47
2023/05/16 07:24:31;;;;;;;2.35;1.40;;;16.20;99.90;;;;;;5015288;28;20030;-53
2023/05/16 07:26:57;;;;;;;6.32;1.45;;;16.10;99.90;;;;;;5033469;28;20507;-57
2023/05/16 07:29:22;;;;;;;5.03;2.08;;;16.20;99.90;;;;;;5032699;28;20096;-55
2023/05/16 07:31:48;;;;;;;2.92;1.40;;;16.10;99.90;;;;;;5033459;28;20110;-52
2023/05/16 07:34:13;;;;;;;8.32;2.05;;;16.10;99.90;;;;;;5032966;28;20057;-53
2023/05/16 07:36:39;;;;;;;2.78;2.13;;;16.10;99.90;;;;;;5033206;28;20037;-55
2023/05/16 07:39:05;;;;;;;3.72;2.10;;;16.20;99.90;;;;;;5032708;28;20454;-55
2023/05/16 07:41:31;;;;;;;3.17;2.35;;;16.10;99.90;;;;;;5033264;28;20100;-56
2023/05/16 07:43:57;;;;;;;5.32;2.78;;;16.10;99.90;;;;;;5032859;28;20033;-56
2023/05/16 07:46:23;;;;;;;3.25;1.90;;;16.10;99.90;;;;;;5033168;28;20037;-55
2023/05/16 07:48:48;;;;;;;5.95;2.20;;;16.10;99.90;;;;;;5032603;28;20392;-56
2023/05/16 07:51:14;;;;;;;6.32;2.15;;;16.00;99.90;;;;;;5032918;28;20109;-51
2023/05/16 07:53:40;;;;;;;2.85;1.65;;;15.90;99.90;;;;;;5032599;28;20024;-55
2023/05/16 07:56:07;;;;;;;5.35;2.20;;;15.90;99.90;;;;;;5032908;28;20562;-55
2023/05/16 07:58:33;;;;;;;5.63;1.90;;;15.80;99.90;;;;;;5032409;28;20025;-57
2023/05/16 08:00:58;;;;;;;5.78;2.58;;;15.90;99.90;;;;;;5032701;28;20514;-53
2023/05/16 08:03:24;;;;;;;5.30;2.78;;;15.80;99.90;;;;;;5032523;28;20057;-57
2023/05/16 08:05:50;;;;;;;9.70;2.42;;;15.90;99.90;;;;;;5032688;28;20140;-54
2023/05/16 08:08:16;;;;;;;6.00;2.17;;;16.00;99.90;;;;;;5032262;28;20028;-55
2023/05/16 08:10:42;;;;;;;7.13;2.15;;;16.10;99.90;;;;;;5032604;28;20104;-52
2023/05/16 08:13:08;;;;;;;3.90;2.10;;;16.10;99.90;;;;;;5032364;28;20108;-54
2023/05/16 08:15:34;;;;;;;2.30;1.63;;;16.10;99.90;;;;;;5032546;28;20029;-53
2023/05/16 08:18:00;;;;;;;3.13;1.80;;;16.10;99.90;;;;;;5032054;28;20602;-52
2023/05/16 08:20:26;;;;;;;5.18;2.33;;;16.10;99.90;;;;;;5036757;28;20480;-55
2023/05/16 08:22:53;;;;;;;4.53;2.42;;;16.10;99.90;;;;;;5032421;28;20056;-54
2023/05/16 08:25:19;;;;;;;6.50;2.58;;;16.10;99.90;;;;;;5031706;28;20082;-54
2023/05/16 08:27:45;;;;;;;4.45;2.38;;;16.10;99.90;;;;;;5032389;28;20104;-62
2023/05/16 08:30:12;;;;;;;6.93;3.85;;;16.20;99.90;;;;;;5032022;28;20033;-63
2023/05/16 08:32:38;;;;;;;3.63;2.23;;;16.20;99.90;;;;;;5032351;28;20022;-62
2023/05/16 08:35:04;;;;;;;8.43;2.17;;;16.30;99.90;;;;;;5032265;28;20384;-62
2023/05/16 08:37:29;;;;;;;5.80;2.50;;;16.30;99.90;;;;;;5031899;28;20102;-49
2023/05/16 08:39:55;;;;;;;4.13;2.63;;;16.30;99.90;;;;;;5032038;28;20092;-51
2023/05/16 08:42:21;;;;;;;3.10;1.70;;;16.30;99.90;;;;;;5032317;28;20033;-52
2023/05/16 08:44:47;;;;;;;3.78;2.03;;;16.30;99.90;;;;;;5030542;28;20498;-53
2023/05/16 08:47:21;;;;;;;5.93;2.38;;;16.30;99.90;;;;;;5030540;28;20038;-54
2023/05/16 08:49:50;;;;;;;9.48;2.83;;;16.30;99.90;;;;;;5031377;28;20033;-56
2023/05/16 08:52:18;;;;;;;4.10;2.55;;;16.40;99.90;;;;;;5031703;28;20091;-49
2023/05/16 08:54:45;;;;;;;3.90;2.15;;;16.40;99.90;;;;;;5031889;28;20018;-50
2023/05/16 08:57:12;;;;;;;5.07;2.30;;;16.40;99.90;;;;;;5031624;28;20388;-52
2023/05/16 08:59:39;;;;;;;;;;;16.50;99.90;;;;;;5014619;28;20017;-53
2023/05/16 09:02:05;;;;;;;3.20;1.83;;;16.50;99.90;;;;;;5031768;28;19909;-53
2023/05/16 09:04:31;;;;;;;2.10;1.85;;;16.50;99.90;;;;;;5032220;28;20044;-56
2023/05/16 09:06:57;;;;;;;3.37;1.97;;;16.60;99.90;;;;;;5031670;28;20017;-56
2023/05/16 09:09:23;;;;;;;2.13;1.92;;;16.60;99.90;;;;;;5013792;28;20025;-54
2023/05/16 09:11:49;;;;;;;2.47;1.87;;;16.70;99.90;;;;;;5031617;28;20037;-56
2023/05/16 09:14:14;;;;;;;4.90;3.30;;;16.80;99.90;;;;;;5031610;28;20747;-56
2023/05/16 09:16:41;;;;;;;4.47;2.60;;;16.80;99.90;;;;;;5031398;28;20587;-56
2023/05/16 09:19:06;;;;;;;2.45;2.05;;;16.90;99.90;;;;;;5031405;28;20113;-56
2023/05/16 09:21:33;;;;;;;5.22;2.60;;;17.00;99.90;;;;;;5031517;28;20097;-56
2023/05/16 09:24:05;;;;;;;;;;;17.10;99.90;;;;;;5031956;28;20398;-55
2023/05/16 09:26:38;;;;;;;2.90;2.33;;;17.00;99.90;;;;;;5031502;28;19945;-57
2023/05/16 09:29:11;;;;;;;5.03;2.85;;;16.90;99.90;;;;;;5031229;28;20428;-54
2023/05/16 09:31:37;;;;;;;5.45;3.17;;;16.90;99.90;;;;;;5031609;28;20061;-56
2023/05/16 09:34:12;;;;;;;5.10;2.40;;;17.00;99.90;;;;;;5031509;28;20452;-57
2023/05/16 09:36:38;;;;;;;4.03;2.83;;;17.00;99.90;;;;;;5013510;28;20029;-55
2023/05/16 09:39:05;;;;;;;5.60;3.55;;;17.10;99.90;;;;;;5031075;28;20100;-56
2023/05/16 09:41:35;;;;;;;4.05;2.97;;;17.20;99.90;;;;;;5031231;28;20033;-56
2023/05/16 09:44:07;;;;;;;3.50;2.90;;;17.30;99.90;;;;;;5034406;28;20104;-56
2023/05/16 09:46:34;;;;;;;5.18;3.50;;;17.40;99.90;;;;;;5035289;28;20554;-52
2023/05/16 09:49:00;;;;;;;4.63;3.50;;;17.50;99.90;;;;;;5035464;28;20440;-55
2023/05/16 09:51:26;;;;;;;4.45;3.88;;;17.50;99.90;;;;;;5035249;28;20033;-52
2023/05/16 09:53:51;;;;;;;7.63;3.45;;;17.50;99.90;;;;;;5035206;28;20021;-55
2023/05/16 09:56:17;;;;;;;4.15;3.25;;;17.50;99.90;;;;;;5035055;28;20421;-55
2023/05/16 09:58:45;;;;;;;6.70;4.65;;;17.60;99.90;;;;;;5035011;28;20075;-55
2023/05/16 10:01:11;;;;;;;6.10;4.03;;;17.60;99.90;;;;;;5035207;28;20026;-53
2023/05/16 10:03:39;;;;;;;7.10;4.45;;;17.70;99.90;;;;;;5017269;28;20211;-54
2023/05/16 10:06:06;;;;;;;4.82;4.10;;;17.70;99.90;;;;;;5035018;28;20091;-54
2023/05/16 10:08:35;;;;;;;;;;;17.80;99.90;;;;;;5035097;28;20030;-52
2023/05/16 10:11:05;;;;;;;4.60;4.03;;;17.70;99.90;;;;;;5034956;28;19912;-55
2023/05/16 10:13:33;;;;;;;5.05;4.15;;;17.70;99.90;;;;;;5034996;28;20082;-53
2023/05/16 10:16:05;;;;;;;7.57;4.13;;;17.70;99.90;;;;;;5034807;28;20022;-55
2023/05/16 10:18:32;;;;;;;5.25;4.40;;;17.70;99.90;;;;;;4999900;28;20033;-55
2023/05/16 10:21:07;;;;;;;5.75;4.05;;;17.70;99.90;;;;;;5032944;28;20101;-56
2023/05/16 10:23:34;;;;;;;4.68;3.47;;;17.60;99.90;;;;;;5033906;28;20048;-57
2023/05/16 10:26:04;;;;;;;7.43;3.90;;;17.50;99.90;;;;;;5034595;28;20143;-57
2023/05/16 10:28:31;;;;;;;6.53;3.85;;;17.50;99.90;;;;;;5034465;28;20485;-54
2023/05/16 10:30:58;;;;;;;6.72;4.35;;;17.50;99.90;;;;;;5034390;28;20053;-55
2023/05/16 10:33:23;;;;;;;8.77;4.32;;;17.40;99.90;;;;;;5034760;28;20027;-57
2023/05/16 10:35:49;;;;;;;6.70;4.60;;;17.50;99.90;;;;;;5033385;28;20136;-57
2023/05/16 10:38:17;;;;;;;5.80;4.57;;;17.40;99.90;;;;;;5033817;28;20049;-53
2023/05/16 10:40:43;;;;;;;6.28;4.13;;;17.30;99.90;;;;;;5033962;28;20021;-55
2023/05/16 10:43:09;;;;;;;6.55;4.47;;;17.10;99.90;;;;;;5034385;28;20033;-53
2023/05/16 10:45:41;;;;;;;5.70;4.40;;;17.00;99.90;;;;;;5034023;28;20075;-52
2023/05/16 10:48:09;;;;;;;4.80;4.18;;;17.10;99.90;;;;;;5029745;28;20064;-56
2023/05/16 10:50:38;;;;;;;8.30;4.28;;;17.10;99.90;;;;;;5033662;28;20052;-52
2023/05/16 10:53:18;;;;;;;10.80;4.13;;;17.20;99.90;;;;;;5033911;28;20519;-52
2023/05/16 10:56:00;;;;;;;7.53;4.50;;;17.50;99.90;;;;;;5034005;28;20021;-53
2023/05/16 10:58:41;;;;;;;6.78;4.60;;;17.50;99.90;;;;;;5033656;28;20419;-54
2023/05/16 11:01:25;;;;;;;5.65;4.93;;;17.60;99.90;;;;;;5015855;28;20084;-56
2023/05/16 11:03:57;;;;;;;8.27;4.75;;;17.70;99.90;;;;;;5027000;28;20027;-54
2023/05/16 11:06:24;;;;;;;10.63;5.00;;;17.90;99.90;;;;;;5033121;28;20504;-55
2023/05/16 11:09:05;;;;;;;6.10;4.47;;;17.90;99.90;;;;;;5033693;28;20021;-54
2023/05/16 11:11:45;;;;;;;5.93;4.07;;;17.90;99.70;;;;;;5033221;28;20581;-57
2023/05/16 11:14:28;;;;;;;6.28;4.40;;;18.00;99.10;;;;;;5033813;28;20560;-56
2023/05/16 11:17:07;;;;;;;4.95;4.45;;;17.90;99.70;;;;;;5033338;28;20029;-53
2023/05/16 11:19:33;;;;;;;5.05;4.55;;;18.00;99.90;;;;;;5060775;23;20069;-49
2023/05/16 11:22:08;;;;;;;6.28;3.80;;;18.20;99.90;;;;;;5040860;28;20048;-48
2023/05/16 11:24:36;;;;;;;8.98;4.55;;;18.30;99.90;;;;;;5033761;28;20395;-47
2023/05/16 11:27:03;;;;;;;9.15;6.38;;;18.40;99.90;;;;;;5033549;28;20618;-48
2023/05/16 11:29:33;;;;;;;5.78;4.22;;;18.40;99.90;;;;;;5033497;28;20112;-47
2023/05/16 11:32:00;;;;;;;7.03;4.55;;;18.60;99.90;;;;;;5033568;28;20504;-51
2023/05/16 11:34:26;;;;;;;;;;;18.60;98.60;;;;;;5034070;28;20025;-48
2023/05/16 11:36:52;;;;;;;4.45;3.97;;;18.60;99.90;;;;;;5033301;28;19912;-51
2023/05/16 11:39:18;;;;;;;6.68;4.57;;;18.30;98.80;;;;;;5033258;28;20024;-47
2023/05/16 11:41:45;;;;;;;51.90;37.97;;;18.20;99.60;;;;;;5033427;28;20483;-48
2023/05/16 11:44:12;;;;;;;62.83;49.40;;;18.40;99.70;;;;;;5033622;28;20268;-46
2023/05/16 11:46:40;;;;;;;7.93;4.43;;;18.50;99.30;;;;;;5033017;28;20087;-49
2023/05/16 11:49:08;;;;;;;6.47;4.43;;;18.20;97.70;;;;;;5033065;28;20399;-48
2023/05/16 11:51:42;;;;;;;8.60;4.65;;;18.10;99.20;;;;;;5032989;28;20434;-48
2023/05/16 11:54:11;;;;;;;6.28;4.18;;;18.10;99.90;;;;;;5015520;28;20026;-49
2023/05/16 11:56:40;;;;;;;7.38;4.45;;;18.10;99.30;;;;;;5033197;28;20400;-47
2023/05/16 11:59:06;;;;;;;11.90;4.97;;;18.20;99.60;;;;;;5032809;28;20223;-48
2023/05/16 12:01:37;;;;;;;7.10;5.03;;;18.30;99.90;;;;;;5033078;28;20036;-49
2023/05/16 12:04:10;;;;;;;5.53;4.55;;;18.20;99.80;;;;;;5034968;28;20264;-47
2023/05/16 12:06:37;;;;;;;9.55;4.70;;;17.80;99.90;;;;;;5044815;28;20059;-48
2023/05/16 12:09:09;;;;;;;7.40;4.80;;;17.90;99.90;;;;;;5032619;28;20041;-48
2023/05/16 12:11:40;;;;;;;5.75;4.43;;;18.30;99.90;;;;;;5032679;28;20034;-47
2023/05/16 12:14:12;;;;;;;7.32;5.00;;;18.70;99.90;;;;;;5032974;28;20076;-49
2023/05/16 12:16:41;;;;;;;9.80;5.05;;;18.90;99.70;;;;;;5032818;28;20502;-47
2023/05/16 12:19:07;;;;;;;8.35;5.07;;;19.10;98.80;;;;;;5032392;28;20154;-51
2023/05/16 12:21:33;;;;;;;6.33;4.77;;;19.20;98.60;;;;;;5032475;28;20036;-49
2023/05/16 12:24:00;;;;;;;7.15;4.85;;;19.40;97.20;;;;;;5032682;28;20256;-49
2023/05/16 12:26:29;;;;;;;4.97;4.47;;;19.60;96.50;;;;;;5032648;28;20436;-48
2023/05/16 12:29:04;;;;;;;5.47;4.40;;;19.70;96.70;;;;;;5032136;28;20030;-48
2023/05/16 12:31:34;;;;;;;8.30;4.88;;;19.90;93.60;;;;;;5032507;28;20040;-47
2023/05/16 12:34:00;;;;;;;5.63;4.38;;;19.90;94.50;;;;;;5032361;28;20498;-50
2023/05/16 12:36:33;;;;;;;9.50;4.60;;;20.10;94.40;;;;;;5032242;28;20030;-48
2023/05/16 12:39:02;;;;;;;5.25;4.35;;;20.20;93.30;;;;;;5032129;28;20029;-49
2023/05/16 12:41:29;;;;;;;7.35;4.38;;;20.30;92.70;;;;;;5032317;28;20053;-49